sensor_id;sensor_type;location;lat;lon;timestamp;temperature;humidity
1680;DHT22;838;51.794;12.258;2023-05-28T00:02:18;11.00;25.30
1680;DHT22;838;51.794;12.258;2023-05-28T00:04:44;10.90;25.80
1680;DHT22;838;51.794;12.258;2023-05-28T00:07:10;10.90;24.50
1680;DHT22;838;51.794;12.258;2023-05-28T00:09:39;10.90;24.10
1680;DHT22;838;51.794;12.258;2023-05-28T00:12:07;11.10;23.00
1680;DHT22;838;51.794;12.258;2023-05-28T00:14:33;11.20;21.90
1680;DHT22;838;51.794;12.258;2023-05-28T00:16:59;11.30;21.30
1680;DHT22;838;51.794;12.258;2023-05-28T00:19:25;11.50;19.60
1680;DHT22;838;51.794;12.258;2023-05-28T00:21:51;11.70;18.00
1680;DHT22;838;51.794;12.258;2023-05-28T00:24:17;11.80;16.90
1680;DHT22;838;51.794;12.258;2023-05-28T00:26:42;12.00;16.30
1680;DHT22;838;51.794;12.258;2023-05-28T00:29:08;12.00;15.60
1680;DHT22;838;51.794;12.258;2023-05-28T00:31:34;12.00;15.70
1680;DHT22;838;51.794;12.258;2023-05-28T00:34:00;12.10;14.80
1680;DHT22;838;51.794;12.258;2023-05-28T00:36:26;12.10;15.80
1680;DHT22;838;51.794;12.258;2023-05-28T00:38:52;12.10;14.50
1680;DHT22;838;51.794;12.258;2023-05-28T00:41:21;12.00;14.80
1680;DHT22;838;51.794;12.258;2023-05-28T00:43:48;11.90;15.30
1680;DHT22;838;51.794;12.258;2023-05-28T00:46:20;11.90;15.80
1680;DHT22;838;51.794;12.258;2023-05-28T00:48:47;11.70;17.00
1680;DHT22;838;51.794;12.258;2023-05-28T00:51:14;11.70;17.30
1680;DHT22;838;51.794;12.258;2023-05-28T00:53:41;11.60;18.00
1680;DHT22;838;51.794;12.258;2023-05-28T00:56:09;11.50;18.50
1680;DHT22;838;51.794;12.258;2023-05-28T00:58:37;11.40;18.90
1680;DHT22;838;51.794;12.258;2023-05-28T01:01:06;11.40;19.00
1680;DHT22;838;51.794;12.258;2023-05-28T01:03:32;11.40;18.90
1680;DHT22;838;51.794;12.258;2023-05-28T01:05:58;11.30;19.50
1680;DHT22;838;51.794;12.258;2023-05-28T01:08:27;11.20;20.60
1680;DHT22;838;51.794;12.258;2023-05-28T01:10:52;11.20;20.60
1680;DHT22;838;51.794;12.258;2023-05-28T01:13:18;11.20;20.90
1680;DHT22;838;51.794;12.258;2023-05-28T01:15:44;11.30;18.70
1680;DHT22;838;51.794;12.258;2023-05-28T01:18:10;11.40;19.20
1680;DHT22;838;51.794;12.258;2023-05-28T01:20:37;11.20;19.50
1680;DHT22;838;51.794;12.258;2023-05-28T01:23:06;11.10;20.20
1680;DHT22;838;51.794;12.258;2023-05-28T01:25:36;11.20;19.40
1680;DHT22;838;51.794;12.258;2023-05-28T01:28:11;11.20;19.00
1680;DHT22;838;51.794;12.258;2023-05-28T01:30:40;11.20;18.70
1680;DHT22;838;51.794;12.258;2023-05-28T01:33:06;11.10;19.90
1680;DHT22;838;51.794;12.258;2023-05-28T01:35:32;11.10;19.90
1680;DHT22;838;51.794;12.258;2023-05-28T01:38:01;11.00;19.90
1680;DHT22;838;51.794;12.258;2023-05-28T01:40:28;11.00;19.50
1680;DHT22;838;51.794;12.258;2023-05-28T01:42:55;10.90;19.80
1680;DHT22;838;51.794;12.258;2023-05-28T01:45:22;10.90;19.60
1680;DHT22;838;51.794;12.258;2023-05-28T01:47:49;10.80;20.00
1680;DHT22;838;51.794;12.258;2023-05-28T01:50:15;10.80;20.60
1680;DHT22;838;51.794;12.258;2023-05-28T01:52:41;10.70;20.90
1680;DHT22;838;51.794;12.258;2023-05-28T01:55:07;10.50;22.00
1680;DHT22;838;51.794;12.258;2023-05-28T01:57:37;10.40;23.60
1680;DHT22;838;51.794;12.258;2023-05-28T02:00:04;10.30;24.70
1680;DHT22;838;51.794;12.258;2023-05-28T02:02:31;10.20;26.40
1680;DHT22;838;51.794;12.258;2023-05-28T02:04:57;10.10;28.00
1680;DHT22;838;51.794;12.258;2023-05-28T02:07:22;10.00;29.70
1680;DHT22;838;51.794;12.258;2023-05-28T02:09:48;10.00;31.10
1680;DHT22;838;51.794;12.258;2023-05-28T02:12:14;10.10;31.00
1680;DHT22;838;51.794;12.258;2023-05-28T02:14:42;10.10;29.70
1680;DHT22;838;51.794;12.258;2023-05-28T02:17:08;9.90;31.20
1680;DHT22;838;51.794;12.258;2023-05-28T02:19:35;9.80;32.90
1680;DHT22;838;51.794;12.258;2023-05-28T02:22:01;9.80;32.60
1680;DHT22;838;51.794;12.258;2023-05-28T02:24:28;9.70;32.70
1680;DHT22;838;51.794;12.258;2023-05-28T02:26:54;9.70;33.10
1680;DHT22;838;51.794;12.258;2023-05-28T02:29:20;9.40;34.60
1680;DHT22;838;51.794;12.258;2023-05-28T02:31:45;9.30;37.40
1680;DHT22;838;51.794;12.258;2023-05-28T02:34:11;9.40;37.60
1680;DHT22;838;51.794;12.258;2023-05-28T02:36:37;9.40;36.70
1680;DHT22;838;51.794;12.258;2023-05-28T02:39:03;9.50;35.40
1680;DHT22;838;51.794;12.258;2023-05-28T02:41:29;9.40;36.00
1680;DHT22;838;51.794;12.258;2023-05-28T02:43:54;9.40;36.60
1680;DHT22;838;51.794;12.258;2023-05-28T02:46:20;9.50;36.00
1680;DHT22;838;51.794;12.258;2023-05-28T02:48:46;9.60;34.70
1680;DHT22;838;51.794;12.258;2023-05-28T02:51:11;9.70;34.20
1680;DHT22;838;51.794;12.258;2023-05-28T02:53:37;9.70;32.90
1680;DHT22;838;51.794;12.258;2023-05-28T02:56:03;9.80;31.90
1680;DHT22;838;51.794;12.258;2023-05-28T02:58:29;9.80;31.20
1680;DHT22;838;51.794;12.258;2023-05-28T03:00:56;9.80;31.40
1680;DHT22;838;51.794;12.258;2023-05-28T03:03:22;10.00;29.40
1680;DHT22;838;51.794;12.258;2023-05-28T03:05:51;10.10;29.00
1680;DHT22;838;51.794;12.258;2023-05-28T03:08:17;10.10;27.70
1680;DHT22;838;51.794;12.258;2023-05-28T03:10:43;10.30;26.90
1680;DHT22;838;51.794;12.258;2023-05-28T03:13:08;10.30;26.90
1680;DHT22;838;51.794;12.258;2023-05-28T03:15:34;10.20;26.50
1680;DHT22;838;51.794;12.258;2023-05-28T03:18:01;10.20;27.50
1680;DHT22;838;51.794;12.258;2023-05-28T03:20:27;10.30;26.60
1680;DHT22;838;51.794;12.258;2023-05-28T03:22:56;10.20;26.70
1680;DHT22;838;51.794;12.258;2023-05-28T03:25:23;10.20;26.80
1680;DHT22;838;51.794;12.258;2023-05-28T03:27:50;10.20;26.80
1680;DHT22;838;51.794;12.258;2023-05-28T03:30:16;10.20;27.20
1680;DHT22;838;51.794;12.258;2023-05-28T03:32:42;10.20;27.10
1680;DHT22;838;51.794;12.258;2023-05-28T03:35:08;10.20;27.30
1680;DHT22;838;51.794;12.258;2023-05-28T03:37:33;10.20;26.80
1680;DHT22;838;51.794;12.258;2023-05-28T03:40:00;10.10;27.50
1680;DHT22;838;51.794;12.258;2023-05-28T03:42:25;10.20;27.60
1680;DHT22;838;51.794;12.258;2023-05-28T03:44:51;10.20;27.90
1680;DHT22;838;51.794;12.258;2023-05-28T03:47:17;10.20;28.60
1680;DHT22;838;51.794;12.258;2023-05-28T03:49:42;10.30;27.20
1680;DHT22;838;51.794;12.258;2023-05-28T03:52:09;10.40;27.00
1680;DHT22;838;51.794;12.258;2023-05-28T03:54:35;10.50;26.30
1680;DHT22;838;51.794;12.258;2023-05-28T03:57:01;10.60;25.90
1680;DHT22;838;51.794;12.258;2023-05-28T03:59:26;10.80;25.70
1680;DHT22;838;51.794;12.258;2023-05-28T04:01:52;11.00;24.10
1680;DHT22;838;51.794;12.258;2023-05-28T04:04:18;11.10;24.50
1680;DHT22;838;51.794;12.258;2023-05-28T04:06:44;11.30;23.20
1680;DHT22;838;51.794;12.258;2023-05-28T04:09:09;11.20;22.40
1680;DHT22;838;51.794;12.258;2023-05-28T04:11:35;11.20;22.00
1680;DHT22;838;51.794;12.258;2023-05-28T04:14:03;11.30;22.10
1680;DHT22;838;51.794;12.258;2023-05-28T04:16:28;11.50;21.90
1680;DHT22;838;51.794;12.258;2023-05-28T04:18:54;11.60;21.20
1680;DHT22;838;51.794;12.258;2023-05-28T04:21:21;11.60;21.20
1680;DHT22;838;51.794;12.258;2023-05-28T04:23:47;11.70;20.70
1680;DHT22;838;51.794;12.258;2023-05-28T04:26:13;11.90;19.60
1680;DHT22;838;51.794;12.258;2023-05-28T04:28:40;12.00;18.80
1680;DHT22;838;51.794;12.258;2023-05-28T04:31:06;12.20;18.20
1680;DHT22;838;51.794;12.258;2023-05-28T04:33:39;12.40;16.80
1680;DHT22;838;51.794;12.258;2023-05-28T04:36:05;12.60;15.40
1680;DHT22;838;51.794;12.258;2023-05-28T04:38:34;12.80;14.50
1680;DHT22;838;51.794;12.258;2023-05-28T04:41:00;13.00;14.50
1680;DHT22;838;51.794;12.258;2023-05-28T04:43:26;13.10;14.70
1680;DHT22;838;51.794;12.258;2023-05-28T04:45:55;13.30;13.40
1680;DHT22;838;51.794;12.258;2023-05-28T04:48:20;13.40;12.40
1680;DHT22;838;51.794;12.258;2023-05-28T04:50:46;13.50;11.70
1680;DHT22;838;51.794;12.258;2023-05-28T04:53:13;13.70;11.30
1680;DHT22;838;51.794;12.258;2023-05-28T04:55:38;13.90;9.90
1680;DHT22;838;51.794;12.258;2023-05-28T04:58:05;14.00;9.40
1680;DHT22;838;51.794;12.258;2023-05-28T05:00:32;14.10;8.10
1680;DHT22;838;51.794;12.258;2023-05-28T05:03:00;14.40;7.10
1680;DHT22;838;51.794;12.258;2023-05-28T05:05:26;14.50;6.00
1680;DHT22;838;51.794;12.258;2023-05-28T05:08:01;14.50;4.20
1680;DHT22;838;51.794;12.258;2023-05-28T05:10:27;14.30;6.20
1680;DHT22;838;51.794;12.258;2023-05-28T05:12:53;14.30;7.30
1680;DHT22;838;51.794;12.258;2023-05-28T05:15:19;14.00;9.30
1680;DHT22;838;51.794;12.258;2023-05-28T05:17:44;13.90;10.80
1680;DHT22;838;51.794;12.258;2023-05-28T05:20:10;14.10;11.20
1680;DHT22;838;51.794;12.258;2023-05-28T05:22:36;14.30;10.70
1680;DHT22;838;51.794;12.258;2023-05-28T05:25:02;14.50;10.50
1680;DHT22;838;51.794;12.258;2023-05-28T05:27:28;14.80;8.30
1680;DHT22;838;51.794;12.258;2023-05-28T05:29:54;14.90;7.50
1680;DHT22;838;51.794;12.258;2023-05-28T05:32:19;15.00;7.50
1680;DHT22;838;51.794;12.258;2023-05-28T05:34:45;15.20;6.60
1680;DHT22;838;51.794;12.258;2023-05-28T05:37:11;15.30;7.00
1680;DHT22;838;51.794;12.258;2023-05-28T05:39:37;15.30;6.50
1680;DHT22;838;51.794;12.258;2023-05-28T05:42:03;15.20;8.00
1680;DHT22;838;51.794;12.258;2023-05-28T05:44:29;15.30;8.60
1680;DHT22;838;51.794;12.258;2023-05-28T05:46:55;15.60;9.00
1680;DHT22;838;51.794;12.258;2023-05-28T05:49:20;15.70;7.20
1680;DHT22;838;51.794;12.258;2023-05-28T05:51:46;15.80;6.00
1680;DHT22;838;51.794;12.258;2023-05-28T05:54:12;16.00;5.60
1680;DHT22;838;51.794;12.258;2023-05-28T05:56:37;16.20;4.40
1680;DHT22;838;51.794;12.258;2023-05-28T05:59:03;16.40;3.70
1680;DHT22;838;51.794;12.258;2023-05-28T06:01:29;16.70;1.70
1680;DHT22;838;51.794;12.258;2023-05-28T06:03:55;16.90;1.00
1680;DHT22;838;51.794;12.258;2023-05-28T06:06:21;17.00;1.00
1680;DHT22;838;51.794;12.258;2023-05-28T06:08:47;17.10;1.00
1680;DHT22;838;51.794;12.258;2023-05-28T06:11:13;17.20;1.00
1680;DHT22;838;51.794;12.258;2023-05-28T06:13:39;17.40;1.00
1680;DHT22;838;51.794;12.258;2023-05-28T06:16:05;17.50;1.00
1680;DHT22;838;51.794;12.258;2023-05-28T06:18:32;17.50;1.00
1680;DHT22;838;51.794;12.258;2023-05-28T06:20:58;17.60;1.00
1680;DHT22;838;51.794;12.258;2023-05-28T06:23:24;17.80;1.00
1680;DHT22;838;51.794;12.258;2023-05-28T06:25:50;18.10;1.00
1680;DHT22;838;51.794;12.258;2023-05-28T06:28:16;18.40;1.00
1680;DHT22;838;51.794;12.258;2023-05-28T06:30:42;18.60;1.00
1680;DHT22;838;51.794;12.258;2023-05-28T06:33:08;18.80;1.00
1680;DHT22;838;51.794;12.258;2023-05-28T06:35:35;19.00;1.00
1680;DHT22;838;51.794;12.258;2023-05-28T06:38:01;19.10;1.00
1680;DHT22;838;51.794;12.258;2023-05-28T06:40:27;18.90;1.00
1680;DHT22;838;51.794;12.258;2023-05-28T06:42:52;18.70;1.00
1680;DHT22;838;51.794;12.258;2023-05-28T06:45:18;18.40;1.00
1680;DHT22;838;51.794;12.258;2023-05-28T06:47:45;18.50;1.00
1680;DHT22;838;51.794;12.258;2023-05-28T06:50:11;18.60;1.00
1680;DHT22;838;51.794;12.258;2023-05-28T06:52:37;18.70;1.00
1680;DHT22;838;51.794;12.258;2023-05-28T06:55:03;18.70;1.00
1680;DHT22;838;51.794;12.258;2023-05-28T06:57:32;19.00;1.00
1680;DHT22;838;51.794;12.258;2023-05-28T06:59:59;19.10;1.00
1680;DHT22;838;51.794;12.258;2023-05-28T07:02:24;19.10;1.00
1680;DHT22;838;51.794;12.258;2023-05-28T07:04:51;19.20;1.00
1680;DHT22;838;51.794;12.258;2023-05-28T07:07:17;19.40;1.00
1680;DHT22;838;51.794;12.258;2023-05-28T07:09:46;19.70;1.00
1680;DHT22;838;51.794;12.258;2023-05-28T07:12:12;19.80;1.00
1680;DHT22;838;51.794;12.258;2023-05-28T07:14:37;19.50;1.00
1680;DHT22;838;51.794;12.258;2023-05-28T07:17:03;19.10;1.00
1680;DHT22;838;51.794;12.258;2023-05-28T07:19:30;19.00;1.00
1680;DHT22;838;51.794;12.258;2023-05-28T07:21:56;18.90;1.00
1680;DHT22;838;51.794;12.258;2023-05-28T07:24:22;19.10;1.00
1680;DHT22;838;51.794;12.258;2023-05-28T07:26:48;19.40;1.00
1680;DHT22;838;51.794;12.258;2023-05-28T07:29:14;19.50;1.00
1680;DHT22;838;51.794;12.258;2023-05-28T07:31:42;19.40;1.00
1680;DHT22;838;51.794;12.258;2023-05-28T07:34:07;19.50;1.00
1680;DHT22;838;51.794;12.258;2023-05-28T07:36:33;19.90;1.00
1680;DHT22;838;51.794;12.258;2023-05-28T07:38:59;20.70;1.00
1680;DHT22;838;51.794;12.258;2023-05-28T07:41:35;21.60;1.00
1680;DHT22;838;51.794;12.258;2023-05-28T07:44:03;22.00;1.00
1680;DHT22;838;51.794;12.258;2023-05-28T07:46:32;22.10;1.00
1680;DHT22;838;51.794;12.258;2023-05-28T07:48:58;21.60;1.00
1680;DHT22;838;51.794;12.258;2023-05-28T07:51:26;21.70;1.00
1680;DHT22;838;51.794;12.258;2023-05-28T07:53:52;21.90;1.00
1680;DHT22;838;51.794;12.258;2023-05-28T07:56:19;23.00;1.00
1680;DHT22;838;51.794;12.258;2023-05-28T07:58:45;24.50;1.00
1680;DHT22;838;51.794;12.258;2023-05-28T08:01:11;25.30;1.00
1680;DHT22;838;51.794;12.258;2023-05-28T08:03:37;25.90;1.00
1680;DHT22;838;51.794;12.258;2023-05-28T08:06:03;25.70;1.00
1680;DHT22;838;51.794;12.258;2023-05-28T08:08:29;25.20;1.00
1680;DHT22;838;51.794;12.258;2023-05-28T08:10:55;24.40;1.00
1680;DHT22;838;51.794;12.258;2023-05-28T08:13:21;23.60;1.00
1680;DHT22;838;51.794;12.258;2023-05-28T08:15:47;23.00;1.00
1680;DHT22;838;51.794;12.258;2023-05-28T08:18:13;22.90;1.00
1680;DHT22;838;51.794;12.258;2023-05-28T08:20:39;22.80;1.00
1680;DHT22;838;51.794;12.258;2023-05-28T08:23:05;22.20;1.00
1680;DHT22;838;51.794;12.258;2023-05-28T08:25:32;22.20;1.00
1680;DHT22;838;51.794;12.258;2023-05-28T08:27:58;22.10;1.00
1680;DHT22;838;51.794;12.258;2023-05-28T08:30:25;21.80;1.00
1680;DHT22;838;51.794;12.258;2023-05-28T08:32:51;21.60;1.00
1680;DHT22;838;51.794;12.258;2023-05-28T08:35:20;21.30;1.00
1680;DHT22;838;51.794;12.258;2023-05-28T08:37:49;20.90;1.00
1680;DHT22;838;51.794;12.258;2023-05-28T08:40:15;20.90;1.00
1680;DHT22;838;51.794;12.258;2023-05-28T08:42:41;21.20;1.00
1680;DHT22;838;51.794;12.258;2023-05-28T08:45:08;21.40;1.00
1680;DHT22;838;51.794;12.258;2023-05-28T08:47:34;21.50;1.00
1680;DHT22;838;51.794;12.258;2023-05-28T08:50:06;21.00;1.00
1680;DHT22;838;51.794;12.258;2023-05-28T08:52:33;21.20;1.00
1680;DHT22;838;51.794;12.258;2023-05-28T08:55:02;21.50;1.00
1680;DHT22;838;51.794;12.258;2023-05-28T08:57:40;21.70;1.00
1680;DHT22;838;51.794;12.258;2023-05-28T09:00:15;21.90;1.00
1680;DHT22;838;51.794;12.258;2023-05-28T09:02:45;22.00;1.00
1680;DHT22;838;51.794;12.258;2023-05-28T09:05:11;22.30;1.00
1680;DHT22;838;51.794;12.258;2023-05-28T09:07:36;22.80;1.00
1680;DHT22;838;51.794;12.258;2023-05-28T09:10:03;23.30;1.00
1680;DHT22;838;51.794;12.258;2023-05-28T09:12:28;23.70;1.00
1680;DHT22;838;51.794;12.258;2023-05-28T09:14:54;24.00;1.00
1680;DHT22;838;51.794;12.258;2023-05-28T09:17:41;24.20;1.00
1680;DHT22;838;51.794;12.258;2023-05-28T09:20:14;25.50;1.00
1680;DHT22;838;51.794;12.258;2023-05-28T09:22:40;25.90;1.00
1680;DHT22;838;51.794;12.258;2023-05-28T09:25:10;27.00;1.00
1680;DHT22;838;51.794;12.258;2023-05-28T09:27:36;27.70;1.00
1680;DHT22;838;51.794;12.258;2023-05-28T09:30:04;28.70;1.00
1680;DHT22;838;51.794;12.258;2023-05-28T09:32:33;30.40;1.00
1680;DHT22;838;51.794;12.258;2023-05-28T09:35:17;32.00;1.00
1680;DHT22;838;51.794;12.258;2023-05-28T09:38:13;33.60;1.00
1680;DHT22;838;51.794;12.258;2023-05-28T09:41:21;34.20;1.00
1680;DHT22;838;51.794;12.258;2023-05-28T09:44:02;32.70;1.00
1680;DHT22;838;51.794;12.258;2023-05-28T09:46:35;32.50;1.00
1680;DHT22;838;51.794;12.258;2023-05-28T09:52:25;34.40;1.00
1680;DHT22;838;51.794;12.258;2023-05-28T09:54:53;32.80;1.00
1680;DHT22;838;51.794;12.258;2023-05-28T10:04:23;33.30;1.00
1680;DHT22;838;51.794;12.258;2023-05-28T10:06:59;31.00;1.00
1680;DHT22;838;51.794;12.258;2023-05-28T10:09:26;28.70;1.00
1680;DHT22;838;51.794;12.258;2023-05-28T10:12:16;27.50;1.00
1680;DHT22;838;51.794;12.258;2023-05-28T10:14:45;26.50;1.00
1680;DHT22;838;51.794;12.258;2023-05-28T10:17:14;25.80;1.00
1680;DHT22;838;51.794;12.258;2023-05-28T10:19:46;24.60;1.00
1680;DHT22;838;51.794;12.258;2023-05-28T10:22:12;23.90;1.00
1680;DHT22;838;51.794;12.258;2023-05-28T10:24:39;24.00;1.00
1680;DHT22;838;51.794;12.258;2023-05-28T10:27:06;24.10;1.00
1680;DHT22;838;51.794;12.258;2023-05-28T10:29:45;24.20;1.00
1680;DHT22;838;51.794;12.258;2023-05-28T10:32:15;24.10;1.00
1680;DHT22;838;51.794;12.258;2023-05-28T10:34:42;23.70;1.00
1680;DHT22;838;51.794;12.258;2023-05-28T10:37:11;23.80;1.00
1680;DHT22;838;51.794;12.258;2023-05-28T10:39:44;24.10;1.00
1680;DHT22;838;51.794;12.258;2023-05-28T10:42:17;24.50;1.00
1680;DHT22;838;51.794;12.258;2023-05-28T10:50:15;25.00;1.00
1680;DHT22;838;51.794;12.258;2023-05-28T10:55:46;25.20;1.00
1680;DHT22;838;51.794;12.258;2023-05-28T10:58:35;25.10;1.00
1680;DHT22;838;51.794;12.258;2023-05-28T11:03:54;25.20;1.00
1680;DHT22;838;51.794;12.258;2023-05-28T11:06:20;25.10;1.00
1680;DHT22;838;51.794;12.258;2023-05-28T11:08:48;25.20;1.00
1680;DHT22;838;51.794;12.258;2023-05-28T11:11:37;25.20;1.00
1680;DHT22;838;51.794;12.258;2023-05-28T11:14:06;25.20;1.00
1680;DHT22;838;51.794;12.258;2023-05-28T11:16:32;25.20;1.00
1680;DHT22;838;51.794;12.258;2023-05-28T11:19:05;25.00;1.00
1680;DHT22;838;51.794;12.258;2023-05-28T11:21:31;24.70;1.00
1680;DHT22;838;51.794;12.258;2023-05-28T11:24:02;24.70;1.00
1680;DHT22;838;51.794;12.258;2023-05-28T11:26:31;25.00;1.00
1680;DHT22;838;51.794;12.258;2023-05-28T11:28:57;25.20;1.00
1680;DHT22;838;51.794;12.258;2023-05-28T11:31:23;25.30;1.00
1680;DHT22;838;51.794;12.258;2023-05-28T11:33:50;25.30;1.00
1680;DHT22;838;51.794;12.258;2023-05-28T11:36:19;25.10;1.00
1680;DHT22;838;51.794;12.258;2023-05-28T11:38:46;25.10;1.00
1680;DHT22;838;51.794;12.258;2023-05-28T11:41:13;25.30;1.00
1680;DHT22;838;51.794;12.258;2023-05-28T11:43:38;25.30;1.00
1680;DHT22;838;51.794;12.258;2023-05-28T11:46:10;25.30;1.00
1680;DHT22;838;51.794;12.258;2023-05-28T11:48:38;25.30;1.00
1680;DHT22;838;51.794;12.258;2023-05-28T11:51:08;25.40;1.00
1680;DHT22;838;51.794;12.258;2023-05-28T11:53:43;25.60;1.00
1680;DHT22;838;51.794;12.258;2023-05-28T11:56:10;25.80;1.00
1680;DHT22;838;51.794;12.258;2023-05-28T11:58:38;25.60;1.00
1680;DHT22;838;51.794;12.258;2023-05-28T12:01:15;25.30;1.00
1680;DHT22;838;51.794;12.258;2023-05-28T12:03:46;24.80;1.00
1680;DHT22;838;51.794;12.258;2023-05-28T12:06:12;24.80;1.00
1680;DHT22;838;51.794;12.258;2023-05-28T12:08:47;24.80;1.00
1680;DHT22;838;51.794;12.258;2023-05-28T12:11:13;25.10;1.00
1680;DHT22;838;51.794;12.258;2023-05-28T12:13:39;25.40;1.00
1680;DHT22;838;51.794;12.258;2023-05-28T12:16:09;25.40;1.00
1680;DHT22;838;51.794;12.258;2023-05-28T12:18:41;25.50;1.00
1680;DHT22;838;51.794;12.258;2023-05-28T12:21:14;25.80;1.00
1680;DHT22;838;51.794;12.258;2023-05-28T12:23:46;25.70;1.00
1680;DHT22;838;51.794;12.258;2023-05-28T12:26:14;25.70;1.00
1680;DHT22;838;51.794;12.258;2023-05-28T12:28:40;25.70;1.00
1680;DHT22;838;51.794;12.258;2023-05-28T12:31:07;25.30;1.00
1680;DHT22;838;51.794;12.258;2023-05-28T12:33:33;25.30;1.00
1680;DHT22;838;51.794;12.258;2023-05-28T12:35:59;25.60;1.00
1680;DHT22;838;51.794;12.258;2023-05-28T12:38:26;26.00;1.00
1680;DHT22;838;51.794;12.258;2023-05-28T12:40:55;26.00;1.00
1680;DHT22;838;51.794;12.258;2023-05-28T12:43:21;26.20;1.00
1680;DHT22;838;51.794;12.258;2023-05-28T12:45:47;26.10;1.00
1680;DHT22;838;51.794;12.258;2023-05-28T12:48:14;26.00;1.00
1680;DHT22;838;51.794;12.258;2023-05-28T12:50:40;26.20;1.00
1680;DHT22;838;51.794;12.258;2023-05-28T12:53:05;26.20;1.00
1680;DHT22;838;51.794;12.258;2023-05-28T12:55:32;26.10;1.00
1680;DHT22;838;51.794;12.258;2023-05-28T12:57:58;26.20;1.00
1680;DHT22;838;51.794;12.258;2023-05-28T13:00:24;25.90;1.00
1680;DHT22;838;51.794;12.258;2023-05-28T13:02:50;25.60;1.00
1680;DHT22;838;51.794;12.258;2023-05-28T13:05:16;25.60;1.00
1680;DHT22;838;51.794;12.258;2023-05-28T13:07:43;25.90;1.00
1680;DHT22;838;51.794;12.258;2023-05-28T13:10:10;26.10;1.00
1680;DHT22;838;51.794;12.258;2023-05-28T13:12:36;26.40;1.00
1680;DHT22;838;51.794;12.258;2023-05-28T13:15:06;26.50;1.00
1680;DHT22;838;51.794;12.258;2023-05-28T13:17:33;26.20;1.00
1680;DHT22;838;51.794;12.258;2023-05-28T13:19:59;26.30;1.00
1680;DHT22;838;51.794;12.258;2023-05-28T13:22:25;26.20;1.00
1680;DHT22;838;51.794;12.258;2023-05-28T13:24:54;25.80;1.00
1680;DHT22;838;51.794;12.258;2023-05-28T13:27:20;25.70;1.00
1680;DHT22;838;51.794;12.258;2023-05-28T13:29:45;25.70;1.00
1680;DHT22;838;51.794;12.258;2023-05-28T13:32:14;25.70;1.00
1680;DHT22;838;51.794;12.258;2023-05-28T13:34:40;25.60;1.00
1680;DHT22;838;51.794;12.258;2023-05-28T13:37:06;25.60;1.00
1680;DHT22;838;51.794;12.258;2023-05-28T13:39:32;25.70;1.00
1680;DHT22;838;51.794;12.258;2023-05-28T13:42:12;25.60;1.00
1680;DHT22;838;51.794;12.258;2023-05-28T13:44:38;25.70;1.00
1680;DHT22;838;51.794;12.258;2023-05-28T13:47:05;26.10;1.00
1680;DHT22;838;51.794;12.258;2023-05-28T13:49:31;26.20;1.00
1680;DHT22;838;51.794;12.258;2023-05-28T13:51:57;26.30;1.00
1680;DHT22;838;51.794;12.258;2023-05-28T13:54:22;26.40;1.00
1680;DHT22;838;51.794;12.258;2023-05-28T13:56:48;26.60;1.00
1680;DHT22;838;51.794;12.258;2023-05-28T13:59:14;26.60;1.00
1680;DHT22;838;51.794;12.258;2023-05-28T14:01:39;26.50;1.00
1680;DHT22;838;51.794;12.258;2023-05-28T14:04:05;26.40;1.00
1680;DHT22;838;51.794;12.258;2023-05-28T14:06:35;26.10;1.00
1680;DHT22;838;51.794;12.258;2023-05-28T14:09:01;26.20;1.00
1680;DHT22;838;51.794;12.258;2023-05-28T14:11:27;26.40;1.00
1680;DHT22;838;51.794;12.258;2023-05-28T14:13:53;26.70;1.00
1680;DHT22;838;51.794;12.258;2023-05-28T14:16:19;27.00;1.00
1680;DHT22;838;51.794;12.258;2023-05-28T14:18:44;26.80;1.00
1680;DHT22;838;51.794;12.258;2023-05-28T14:21:10;26.60;1.00
1680;DHT22;838;51.794;12.258;2023-05-28T14:23:36;26.40;1.00
1680;DHT22;838;51.794;12.258;2023-05-28T14:26:02;26.40;1.00
1680;DHT22;838;51.794;12.258;2023-05-28T14:28:29;26.60;1.00
1680;DHT22;838;51.794;12.258;2023-05-28T14:30:56;26.30;1.00
1680;DHT22;838;51.794;12.258;2023-05-28T14:33:21;26.30;1.00
1680;DHT22;838;51.794;12.258;2023-05-28T14:35:47;26.40;1.00
1680;DHT22;838;51.794;12.258;2023-05-28T14:38:13;26.50;1.00
1680;DHT22;838;51.794;12.258;2023-05-28T14:40:39;26.80;1.00
1680;DHT22;838;51.794;12.258;2023-05-28T14:43:05;26.90;1.00
1680;DHT22;838;51.794;12.258;2023-05-28T14:45:31;26.90;1.00
1680;DHT22;838;51.794;12.258;2023-05-28T14:47:56;26.80;1.00
1680;DHT22;838;51.794;12.258;2023-05-28T14:50:22;27.00;1.00
1680;DHT22;838;51.794;12.258;2023-05-28T14:52:48;26.80;1.00
1680;DHT22;838;51.794;12.258;2023-05-28T14:55:14;26.90;1.00
1680;DHT22;838;51.794;12.258;2023-05-28T14:57:43;26.80;1.00
1680;DHT22;838;51.794;12.258;2023-05-28T15:00:09;26.90;1.00
1680;DHT22;838;51.794;12.258;2023-05-28T15:02:36;27.10;1.00
1680;DHT22;838;51.794;12.258;2023-05-28T15:05:03;27.50;1.00
1680;DHT22;838;51.794;12.258;2023-05-28T15:07:32;27.20;1.00
1680;DHT22;838;51.794;12.258;2023-05-28T15:09:58;27.10;1.00
1680;DHT22;838;51.794;12.258;2023-05-28T15:12:25;27.20;1.00
1680;DHT22;838;51.794;12.258;2023-05-28T15:14:51;26.70;1.00
1680;DHT22;838;51.794;12.258;2023-05-28T15:17:17;26.70;1.00
1680;DHT22;838;51.794;12.258;2023-05-28T15:19:47;26.50;1.00
1680;DHT22;838;51.794;12.258;2023-05-28T15:22:13;26.30;1.00
1680;DHT22;838;51.794;12.258;2023-05-28T15:24:38;26.60;1.00
1680;DHT22;838;51.794;12.258;2023-05-28T15:27:05;27.00;1.00
1680;DHT22;838;51.794;12.258;2023-05-28T15:29:31;27.20;1.00
1680;DHT22;838;51.794;12.258;2023-05-28T15:32:00;27.20;1.00
1680;DHT22;838;51.794;12.258;2023-05-28T15:34:30;27.20;1.00
1680;DHT22;838;51.794;12.258;2023-05-28T15:36:57;27.50;1.00
1680;DHT22;838;51.794;12.258;2023-05-28T15:39:23;27.30;1.00
1680;DHT22;838;51.794;12.258;2023-05-28T15:41:50;27.00;1.00
1680;DHT22;838;51.794;12.258;2023-05-28T15:44:17;27.00;1.00
1680;DHT22;838;51.794;12.258;2023-05-28T15:46:48;27.00;1.00
1680;DHT22;838;51.794;12.258;2023-05-28T15:49:14;26.90;1.00
1680;DHT22;838;51.794;12.258;2023-05-28T15:51:40;26.80;1.00
1680;DHT22;838;51.794;12.258;2023-05-28T15:54:05;26.80;1.00
1680;DHT22;838;51.794;12.258;2023-05-28T15:56:31;27.00;1.00
1680;DHT22;838;51.794;12.258;2023-05-28T15:58:57;26.90;1.00
1680;DHT22;838;51.794;12.258;2023-05-28T16:01:24;26.80;1.00
1680;DHT22;838;51.794;12.258;2023-05-28T16:03:50;26.90;1.00
1680;DHT22;838;51.794;12.258;2023-05-28T16:06:17;27.10;1.00
1680;DHT22;838;51.794;12.258;2023-05-28T16:08:46;27.30;1.00
1680;DHT22;838;51.794;12.258;2023-05-28T16:11:12;27.50;1.00
1680;DHT22;838;51.794;12.258;2023-05-28T16:13:42;27.10;1.00
1680;DHT22;838;51.794;12.258;2023-05-28T16:16:12;26.80;1.00
1680;DHT22;838;51.794;12.258;2023-05-28T16:18:39;26.80;1.00
1680;DHT22;838;51.794;12.258;2023-05-28T16:21:05;26.80;1.00
1680;DHT22;838;51.794;12.258;2023-05-28T16:23:32;27.00;1.00
1680;DHT22;838;51.794;12.258;2023-05-28T16:25:58;27.10;1.00
1680;DHT22;838;51.794;12.258;2023-05-28T16:28:25;27.00;1.00
1680;DHT22;838;51.794;12.258;2023-05-28T16:30:52;26.90;1.00
1680;DHT22;838;51.794;12.258;2023-05-28T16:33:18;26.90;1.00
1680;DHT22;838;51.794;12.258;2023-05-28T16:35:44;26.70;1.00
1680;DHT22;838;51.794;12.258;2023-05-28T16:38:10;26.70;1.00